sensor_id;sensor_type;location;lat;lon;timestamp;P1;durP1;ratioP1;P2;durP2;ratioP2
64242;SDS011;50573;51.512;5.386;2022-09-09T00:02:08;7.82;;;3.10;;
64242;SDS011;50573;51.512;5.386;2022-09-09T00:12:22;4.82;;;3.00;;
64242;SDS011;50573;51.512;5.386;2022-09-09T00:22:35;7.20;;;3.35;;
64242;SDS011;50573;51.512;5.386;2022-09-09T00:32:40;4.47;;;2.50;;
64242;SDS011;50573;51.512;5.386;2022-09-09T00:42:45;3.70;;;2.25;;
64242;SDS011;50573;51.512;5.386;2022-09-09T00:52:50;5.13;;;2.60;;
64242;SDS011;50573;51.512;5.386;2022-09-09T01:03:17;5.70;;;2.65;;
64242;SDS011;50573;51.512;5.386;2022-09-09T01:13:26;5.15;;;2.83;;
64242;SDS011;50573;51.512;5.386;2022-09-09T01:23:41;5.43;;;2.65;;
64242;SDS011;50573;51.512;5.386;2022-09-09T01:34:04;5.15;;;2.92;;
64242;SDS011;50573;51.512;5.386;2022-09-09T01:44:13;9.48;;;3.33;;
64242;SDS011;50573;51.512;5.386;2022-09-09T01:54:20;7.68;;;3.70;;
64242;SDS011;50573;51.512;5.386;2022-09-09T02:04:32;10.20;;;4.75;;
64242;SDS011;50573;51.512;5.386;2022-09-09T02:14:48;10.88;;;4.47;;
64242;SDS011;50573;51.512;5.386;2022-09-09T02:24:59;10.95;;;4.97;;
64242;SDS011;50573;51.512;5.386;2022-09-09T02:35:07;12.15;;;4.93;;
64242;SDS011;50573;51.512;5.386;2022-09-09T02:45:15;13.02;;;4.97;;
64242;SDS011;50573;51.512;5.386;2022-09-09T02:55:26;11.90;;;5.57;;
64242;SDS011;50573;51.512;5.386;2022-09-09T03:05:39;16.15;;;5.28;;
64242;SDS011;50573;51.512;5.386;2022-09-09T03:15:46;10.30;;;4.32;;
64242;SDS011;50573;51.512;5.386;2022-09-09T03:25:53;12.38;;;5.15;;
64242;SDS011;50573;51.512;5.386;2022-09-09T03:36:07;10.25;;;4.20;;
64242;SDS011;50573;51.512;5.386;2022-09-09T03:46:12;10.43;;;4.07;;
64242;SDS011;50573;51.512;5.386;2022-09-09T03:56:16;10.15;;;4.13;;
64242;SDS011;50573;51.512;5.386;2022-09-09T04:06:19;10.83;;;4.50;;
64242;SDS011;50573;51.512;5.386;2022-09-09T04:16:24;13.90;;;4.68;;
64242;SDS011;50573;51.512;5.386;2022-09-09T04:26:28;8.68;;;4.03;;
64242;SDS011;50573;51.512;5.386;2022-09-09T04:36:32;11.52;;;4.63;;
64242;SDS011;50573;51.512;5.386;2022-09-09T04:46:38;12.15;;;4.80;;
64242;SDS011;50573;51.512;5.386;2022-09-09T04:56:45;16.25;;;4.63;;
64242;SDS011;50573;51.512;5.386;2022-09-09T05:06:48;14.67;;;4.30;;
64242;SDS011;50573;51.512;5.386;2022-09-09T05:16:53;15.93;;;4.30;;
64242;SDS011;50573;51.512;5.386;2022-09-09T05:26:58;17.55;;;4.22;;
64242;SDS011;50573;51.512;5.386;2022-09-09T05:37:05;21.90;;;4.78;;
64242;SDS011;50573;51.512;5.386;2022-09-09T05:47:10;18.00;;;4.53;;
64242;SDS011;50573;51.512;5.386;2022-09-09T05:57:15;14.52;;;4.13;;
64242;SDS011;50573;51.512;5.386;2022-09-09T06:17:23;9.80;;;3.22;;
64242;SDS011;50573;51.512;5.386;2022-09-09T06:27:27;13.77;;;3.08;;
64242;SDS011;50573;51.512;5.386;2022-09-09T06:37:31;14.37;;;3.13;;
64242;SDS011;50573;51.512;5.386;2022-09-09T06:47:35;13.73;;;3.95;;
64242;SDS011;50573;51.512;5.386;2022-09-09T06:57:40;16.27;;;3.63;;
64242;SDS011;50573;51.512;5.386;2022-09-09T07:07:50;15.35;;;3.63;;
64242;SDS011;50573;51.512;5.386;2022-09-09T07:28:03;10.10;;;2.88;;
64242;SDS011;50573;51.512;5.386;2022-09-09T07:38:08;18.30;;;2.95;;
64242;SDS011;50573;51.512;5.386;2022-09-09T07:48:13;10.95;;;2.92;;
64242;SDS011;50573;51.512;5.386;2022-09-09T07:58:18;16.60;;;3.37;;
64242;SDS011;50573;51.512;5.386;2022-09-09T08:08:21;14.85;;;2.95;;
64242;SDS011;50573;51.512;5.386;2022-09-09T08:18:27;13.35;;;3.00;;
64242;SDS011;50573;51.512;5.386;2022-09-09T08:28:31;10.98;;;2.70;;
64242;SDS011;50573;51.512;5.386;2022-09-09T08:38:35;12.63;;;2.63;;
64242;SDS011;50573;51.512;5.386;2022-09-09T08:48:42;11.68;;;2.90;;
64242;SDS011;50573;51.512;5.386;2022-09-09T08:58:55;17.17;;;2.67;;
64242;SDS011;50573;51.512;5.386;2022-09-09T09:09:22;10.33;;;2.53;;
64242;SDS011;50573;51.512;5.386;2022-09-09T09:19:35;14.77;;;2.45;;
64242;SDS011;50573;51.512;5.386;2022-09-09T09:29:45;13.88;;;3.05;;
64242;SDS011;50573;51.512;5.386;2022-09-09T09:40:13;15.30;;;2.65;;
64242;SDS011;50573;51.512;5.386;2022-09-09T09:50:22;14.60;;;2.80;;
64242;SDS011;50573;51.512;5.386;2022-09-09T10:00:38;15.77;;;3.03;;
64242;SDS011;50573;51.512;5.386;2022-09-09T10:10:59;16.63;;;3.92;;
64242;SDS011;50573;51.512;5.386;2022-09-09T10:21:17;13.98;;;3.38;;
64242;SDS011;50573;51.512;5.386;2022-09-09T10:31:34;13.23;;;3.08;;
64242;SDS011;50573;51.512;5.386;2022-09-09T10:41:50;13.30;;;2.90;;
64242;SDS011;50573;51.512;5.386;2022-09-09T10:52:04;12.88;;;3.00;;
64242;SDS011;50573;51.512;5.386;2022-09-09T11:02:19;9.52;;;2.50;;
64242;SDS011;50573;51.512;5.386;2022-09-09T11:12:29;12.68;;;3.10;;
64242;SDS011;50573;51.512;5.386;2022-09-09T11:22:37;9.57;;;3.17;;
64242;SDS011;50573;51.512;5.386;2022-09-09T11:43:41;8.30;;;2.20;;
64242;SDS011;50573;51.512;5.386;2022-09-09T11:53:47;6.95;;;1.95;;
64242;SDS011;50573;51.512;5.386;2022-09-09T12:03:59;8.23;;;2.70;;
64242;SDS011;50573;51.512;5.386;2022-09-09T12:14:19;7.03;;;2.35;;
64242;SDS011;50573;51.512;5.386;2022-09-09T12:24:27;6.45;;;2.42;;
64242;SDS011;50573;51.512;5.386;2022-09-09T12:34:40;11.23;;;2.53;;
64242;SDS011;50573;51.512;5.386;2022-09-09T12:44:52;9.18;;;2.65;;
64242;SDS011;50573;51.512;5.386;2022-09-09T12:55:01;11.57;;;3.03;;
64242;SDS011;50573;51.512;5.386;2022-09-09T13:05:08;9.70;;;3.30;;
64242;SDS011;50573;51.512;5.386;2022-09-09T13:15:27;9.63;;;3.38;;
64242;SDS011;50573;51.512;5.386;2022-09-09T13:25:34;11.30;;;3.45;;
64242;SDS011;50573;51.512;5.386;2022-09-09T13:35:48;12.63;;;2.47;;
64242;SDS011;50573;51.512;5.386;2022-09-09T13:45:55;9.48;;;2.35;;
64242;SDS011;50573;51.512;5.386;2022-09-09T13:56:09;6.35;;;2.03;;
64242;SDS011;50573;51.512;5.386;2022-09-09T14:06:16;6.90;;;1.73;;
64242;SDS011;50573;51.512;5.386;2022-09-09T14:16:22;5.85;;;1.83;;
64242;SDS011;50573;51.512;5.386;2022-09-09T14:26:30;7.28;;;1.88;;
64242;SDS011;50573;51.512;5.386;2022-09-09T14:36:34;7.65;;;1.98;;
64242;SDS011;50573;51.512;5.386;2022-09-09T14:46:48;6.47;;;1.55;;
64242;SDS011;50573;51.512;5.386;2022-09-09T14:56:53;7.13;;;1.35;;
64242;SDS011;50573;51.512;5.386;2022-09-09T15:06:57;6.97;;;1.60;;
64242;SDS011;50573;51.512;5.386;2022-09-09T15:17:01;3.72;;;1.95;;
64242;SDS011;50573;51.512;5.386;2022-09-09T15:27:05;5.60;;;1.40;;
64242;SDS011;50573;51.512;5.386;2022-09-09T15:37:09;7.63;;;1.75;;
64242;SDS011;50573;51.512;5.386;2022-09-09T15:47:15;4.63;;;1.67;;
64242;SDS011;50573;51.512;5.386;2022-09-09T15:57:19;5.82;;;2.83;;
64242;SDS011;50573;51.512;5.386;2022-09-09T16:07:23;5.20;;;2.20;;
64242;SDS011;50573;51.512;5.386;2022-09-09T16:27:34;8.48;;;4.72;;
64242;SDS011;50573;51.512;5.386;2022-09-09T16:37:45;7.43;;;6.03;;
64242;SDS011;50573;51.512;5.386;2022-09-09T16:47:56;4.80;;;2.10;;
64242;SDS011;50573;51.512;5.386;2022-09-09T16:58:06;3.35;;;2.50;;
64242;SDS011;50573;51.512;5.386;2022-09-09T17:08:11;4.38;;;1.95;;
64242;SDS011;50573;51.512;5.386;2022-09-09T17:18:17;2.72;;;2.47;;
64242;SDS011;50573;51.512;5.386;2022-09-09T17:28:25;4.35;;;1.35;;
64242;SDS011;50573;51.512;5.386;2022-09-09T17:38:32;3.90;;;1.60;;
64242;SDS011;50573;51.512;5.386;2022-09-09T17:48:41;3.95;;;2.50;;
64242;SDS011;50573;51.512;5.386;2022-09-09T17:58:52;6.13;;;3.30;;
64242;SDS011;50573;51.512;5.386;2022-09-09T18:09:00;7.88;;;4.63;;
64242;SDS011;50573;51.512;5.386;2022-09-09T18:19:06;9.95;;;5.53;;
64242;SDS011;50573;51.512;5.386;2022-09-09T18:29:15;12.88;;;6.18;;
64242;SDS011;50573;51.512;5.386;2022-09-09T18:39:21;9.98;;;6.57;;
64242;SDS011;50573;51.512;5.386;2022-09-09T18:49:29;11.07;;;7.05;;
64242;SDS011;50573;51.512;5.386;2022-09-09T18:59:33;8.90;;;6.82;;
64242;SDS011;50573;51.512;5.386;2022-09-09T19:09:38;12.13;;;6.80;;
64242;SDS011;50573;51.512;5.386;2022-09-09T19:29:45;10.98;;;7.13;;
64242;SDS011;50573;51.512;5.386;2022-09-09T19:39:48;11.10;;;7.95;;
64242;SDS011;50573;51.512;5.386;2022-09-09T19:49:54;14.20;;;9.57;;
64242;SDS011;50573;51.512;5.386;2022-09-09T19:59:57;13.20;;;9.63;;
64242;SDS011;50573;51.512;5.386;2022-09-09T20:10:03;8.73;;;7.00;;
64242;SDS011;50573;51.512;5.386;2022-09-09T20:20:06;10.32;;;7.03;;
64242;SDS011;50573;51.512;5.386;2022-09-09T20:30:12;9.52;;;6.65;;
64242;SDS011;50573;51.512;5.386;2022-09-09T20:40:16;12.93;;;6.57;;
64242;SDS011;50573;51.512;5.386;2022-09-09T20:50:22;12.63;;;7.40;;
64242;SDS011;50573;51.512;5.386;2022-09-09T21:00:25;13.70;;;8.38;;
64242;SDS011;50573;51.512;5.386;2022-09-09T21:20:34;13.95;;;6.75;;
64242;SDS011;50573;51.512;5.386;2022-09-09T21:30:39;12.25;;;5.43;;
64242;SDS011;50573;51.512;5.386;2022-09-09T21:40:44;17.40;;;5.57;;
64242;SDS011;50573;51.512;5.386;2022-09-09T21:50:50;17.27;;;5.83;;
64242;SDS011;50573;51.512;5.386;2022-09-09T22:00:54;17.02;;;6.20;;
64242;SDS011;50573;51.512;5.386;2022-09-09T22:11:03;17.25;;;6.32;;
64242;SDS011;50573;51.512;5.386;2022-09-09T22:21:08;16.52;;;5.45;;
64242;SDS011;50573;51.512;5.386;2022-09-09T22:31:15;16.30;;;5.30;;
64242;SDS011;50573;51.512;5.386;2022-09-09T22:41:18;11.43;;;4.45;;
64242;SDS011;50573;51.512;5.386;2022-09-09T22:51:23;15.90;;;5.53;;
64242;SDS011;50573;51.512;5.386;2022-09-09T23:01:26;18.33;;;6.57;;
64242;SDS011;50573;51.512;5.386;2022-09-09T23:11:32;24.03;;;6.80;;
64242;SDS011;50573;51.512;5.386;2022-09-09T23:21:38;18.88;;;6.82;;
64242;SDS011;50573;51.512;5.386;2022-09-09T23:41:47;22.43;;;9.10;;
64242;SDS011;50573;51.512;5.386;2022-09-09T23:51:52;19.42;;;8.50;;
